createdAt,value
2019-03-06T00:00:01.218Z,9.80
2019-03-06T00:02:28.701Z,9.80
2019-03-06T00:04:56.128Z,9.80
2019-03-06T00:07:24.713Z,9.90
2019-03-06T00:09:52.263Z,9.90
2019-03-06T00:12:19.736Z,9.80
2019-03-06T00:14:47.211Z,9.80
2019-03-06T00:17:14.684Z,9.80
2019-03-06T00:19:42.033Z,9.80
2019-03-06T00:22:09.552Z,9.80
2019-03-06T00:24:36.995Z,9.80
2019-03-06T00:27:04.864Z,9.80
2019-03-06T00:29:32.302Z,9.80
2019-03-06T00:31:59.761Z,9.80
2019-03-06T00:34:27.275Z,9.80
2019-03-06T00:36:54.627Z,9.80
2019-03-06T00:39:22.204Z,9.80
2019-03-06T00:41:51.750Z,9.80
2019-03-06T00:44:19.211Z,9.80
2019-03-06T00:46:46.580Z,9.80
2019-03-06T00:49:14.041Z,9.80
2019-03-06T00:51:41.433Z,9.80
2019-03-06T00:54:08.983Z,9.80
2019-03-06T00:56:36.447Z,9.80
2019-03-06T00:59:04.150Z,9.80
2019-03-06T01:01:31.568Z,9.80
2019-03-06T01:03:58.895Z,9.80
2019-03-06T01:06:26.785Z,9.80
2019-03-06T01:08:54.185Z,9.80
2019-03-06T01:11:21.646Z,9.80
2019-03-06T01:13:49.093Z,9.80
2019-03-06T01:16:16.608Z,9.80
2019-03-06T01:18:44.067Z,9.80
2019-03-06T01:21:11.925Z,9.80
2019-03-06T01:23:39.383Z,9.80
2019-03-06T01:26:06.845Z,9.80
2019-03-06T01:28:34.281Z,9.70
2019-03-06T01:31:01.788Z,9.70
2019-03-06T01:33:34.086Z,9.80
2019-03-06T01:36:33.311Z,9.70
2019-03-06T01:39:14.665Z,9.70
2019-03-06T01:42:04.661Z,9.70
2019-03-06T01:44:57.435Z,9.60
2019-03-06T01:47:24.905Z,9.60
2019-03-06T01:49:52.365Z,9.60
2019-03-06T01:52:21.016Z,9.50
2019-03-06T01:54:48.521Z,9.50
2019-03-06T01:57:16.058Z,9.50
2019-03-06T01:59:43.515Z,9.40
2019-03-06T02:02:11.121Z,9.40
2019-03-06T02:04:38.553Z,9.40
2019-03-06T02:07:07.890Z,9.40
2019-03-06T02:09:35.354Z,9.30
2019-03-06T02:12:02.802Z,9.30
2019-03-06T02:14:30.271Z,9.30
2019-03-06T02:16:57.738Z,9.20
2019-03-06T02:19:25.224Z,9.20
2019-03-06T02:21:52.576Z,9.20
2019-03-06T02:24:20.312Z,9.20
2019-03-06T02:26:47.683Z,9.20
2019-03-06T02:29:15.187Z,9.20
2019-03-06T02:31:42.567Z,9.20
2019-03-06T02:34:10.036Z,9.20
2019-03-06T02:36:37.445Z,9.20
2019-03-06T02:39:05.464Z,9.20
2019-03-06T02:41:32.960Z,9.20
2019-03-06T02:44:00.435Z,9.20
2019-03-06T02:46:27.938Z,9.20
2019-03-06T02:48:55.365Z,9.20
2019-03-06T02:51:22.830Z,9.20
2019-03-06T02:53:50.264Z,9.20
2019-03-06T02:56:17.700Z,9.20
2019-03-06T02:59:02.049Z,9.20
2019-03-06T03:01:53.324Z,9.20
2019-03-06T03:04:31.162Z,9.20
2019-03-06T03:07:01.981Z,9.20
2019-03-06T03:09:29.458Z,9.20
2019-03-06T03:11:56.857Z,9.20
2019-03-06T03:14:24.329Z,9.20
2019-03-06T03:16:51.746Z,9.20
2019-03-06T03:19:19.214Z,9.20
2019-03-06T03:21:46.681Z,9.20
2019-03-06T03:24:14.139Z,9.20
2019-03-06T03:26:41.650Z,9.20
2019-03-06T03:29:09.125Z,9.20
2019-03-06T03:31:36.673Z,9.30
2019-03-06T03:34:04.179Z,9.30
2019-03-06T03:36:31.616Z,9.30
2019-03-06T03:38:59.053Z,9.30
2019-03-06T03:41:26.649Z,9.30
2019-03-06T03:43:54.408Z,9.30
2019-03-06T03:46:21.956Z,9.30
2019-03-06T03:48:49.433Z,9.30
2019-03-06T03:51:16.850Z,9.40
2019-03-06T03:53:44.278Z,9.40
2019-03-06T03:56:11.773Z,9.40
2019-03-06T03:58:39.231Z,9.30
2019-03-06T04:01:06.683Z,9.40
2019-03-06T04:03:34.162Z,9.30
2019-03-06T04:06:01.675Z,9.40
2019-03-06T04:08:29.135Z,9.40
2019-03-06T04:10:56.607Z,9.40
2019-03-06T04:13:24.065Z,9.40
2019-03-06T04:15:51.550Z,9.40
2019-03-06T04:18:19.062Z,9.40
2019-03-06T04:20:46.488Z,9.40
2019-03-06T04:23:13.945Z,9.40
2019-03-06T04:25:41.445Z,9.40
2019-03-06T04:28:08.967Z,9.40
2019-03-06T04:30:36.432Z,9.40
2019-03-06T04:33:03.908Z,9.40
2019-03-06T04:35:31.403Z,9.40
2019-03-06T04:37:59.253Z,9.40
2019-03-06T04:40:26.798Z,9.40
2019-03-06T04:42:54.259Z,9.40
2019-03-06T04:45:21.843Z,9.40
2019-03-06T04:47:49.341Z,9.40
2019-03-06T04:50:16.696Z,9.40
2019-03-06T04:52:44.269Z,9.50
2019-03-06T04:55:11.729Z,9.50
2019-03-06T04:57:39.075Z,9.50
2019-03-06T05:00:08.463Z,9.50
2019-03-06T05:02:35.879Z,9.40
2019-03-06T05:05:03.521Z,9.40
2019-03-06T05:07:30.973Z,9.40
2019-03-06T05:09:58.430Z,9.40
2019-03-06T05:12:25.892Z,9.50
2019-03-06T05:14:53.348Z,9.40
2019-03-06T05:17:27.049Z,9.40
2019-03-06T05:19:54.516Z,9.50
2019-03-06T05:22:21.937Z,9.50
2019-03-06T05:24:49.421Z,9.50
2019-03-06T05:27:16.887Z,9.50
2019-03-06T05:29:44.355Z,9.50
2019-03-06T05:32:31.373Z,9.50
2019-03-06T05:35:04.763Z,9.50
2019-03-06T05:37:46.541Z,9.50
2019-03-06T05:40:13.897Z,9.50
2019-03-06T05:42:41.286Z,9.50
2019-03-06T05:45:08.813Z,9.50
2019-03-06T05:47:36.269Z,9.50
2019-03-06T05:50:03.961Z,9.50
2019-03-06T05:52:31.680Z,9.50
2019-03-06T05:54:59.151Z,9.50
2019-03-06T05:57:26.626Z,9.60
2019-03-06T05:59:54.080Z,9.60
2019-03-06T06:02:21.520Z,9.60
2019-03-06T06:04:49.194Z,9.60
2019-03-06T06:07:16.705Z,9.60
2019-03-06T06:09:45.313Z,9.60
2019-03-06T06:12:12.771Z,9.60
2019-03-06T06:14:40.302Z,9.60
2019-03-06T06:17:07.741Z,9.60
2019-03-06T06:19:35.606Z,9.60
2019-03-06T06:22:29.720Z,9.60
2019-03-06T06:24:57.201Z,9.60
2019-03-06T06:27:24.875Z,9.60
2019-03-06T06:29:52.379Z,9.60
2019-03-06T06:32:19.797Z,9.70
2019-03-06T06:34:47.295Z,9.70
2019-03-06T06:37:14.729Z,9.70
2019-03-06T06:39:42.206Z,9.70
2019-03-06T06:42:10.030Z,9.70
2019-03-06T06:44:37.594Z,9.70
2019-03-06T06:47:05.054Z,9.70
2019-03-06T06:49:32.510Z,9.70
2019-03-06T06:52:33.112Z,9.70
2019-03-06T06:55:42.686Z,9.80
2019-03-06T06:58:43.920Z,9.80
2019-03-06T07:01:52.964Z,9.80
2019-03-06T07:05:12.868Z,9.80
2019-03-06T07:08:08.873Z,9.70
2019-03-06T07:11:10.953Z,9.70
2019-03-06T07:13:48.488Z,9.70
2019-03-06T07:16:34.087Z,9.70
2019-03-06T07:19:14.322Z,9.70
2019-03-06T07:22:13.685Z,9.70
2019-03-06T07:25:01.797Z,9.80
2019-03-06T07:27:38.122Z,9.80
2019-03-06T07:30:33.720Z,9.80
2019-03-06T07:33:23.362Z,9.80
2019-03-06T07:36:12.726Z,9.80
2019-03-06T07:38:40.224Z,9.90
2019-03-06T07:41:27.156Z,9.90
2019-03-06T07:44:16.730Z,9.80
2019-03-06T07:47:02.667Z,9.80
2019-03-06T07:49:58.919Z,9.80
2019-03-06T07:52:44.488Z,9.80
2019-03-06T07:55:21.980Z,9.80
2019-03-06T07:58:30.077Z,9.80
2019-03-06T08:00:57.569Z,9.80
2019-03-06T08:03:47.516Z,9.80
2019-03-06T08:06:15.002Z,9.80
2019-03-06T08:08:42.592Z,9.80
2019-03-06T08:11:16.942Z,9.80
2019-03-06T08:14:03.911Z,9.90
2019-03-06T08:16:39.617Z,9.90
2019-03-06T08:19:32.697Z,9.90
2019-03-06T08:22:19.671Z,10.00
2019-03-06T08:24:56.577Z,10.00
2019-03-06T08:27:25.436Z,10.00
2019-03-06T08:29:52.978Z,10.00
2019-03-06T08:32:26.911Z,10.00
2019-03-06T08:34:54.333Z,10.00
2019-03-06T08:37:21.807Z,10.00
2019-03-06T08:39:49.273Z,10.00
2019-03-06T08:42:16.707Z,10.00
2019-03-06T08:44:44.185Z,10.10
2019-03-06T08:47:29.824Z,10.10
2019-03-06T08:50:19.829Z,10.10
2019-03-06T08:53:05.558Z,10.10
2019-03-06T08:55:41.417Z,10.00
2019-03-06T08:58:37.343Z,9.90
2019-03-06T09:01:35.672Z,9.90
2019-03-06T09:04:24.205Z,9.90
2019-03-06T09:07:29.182Z,9.90
2019-03-06T09:10:28.039Z,9.80
2019-03-06T09:13:01.378Z,9.80
2019-03-06T09:15:52.318Z,9.80
2019-03-06T09:18:39.268Z,9.80
2019-03-06T09:21:44.723Z,9.80
2019-03-06T09:24:22.442Z,9.80
2019-03-06T09:27:12.404Z,9.80
2019-03-06T09:30:05.379Z,9.80
2019-03-06T09:33:00.896Z,9.80
2019-03-06T09:35:46.486Z,9.90
2019-03-06T09:38:31.879Z,9.90
2019-03-06T09:41:18.917Z,9.90
2019-03-06T09:44:09.200Z,9.90
2019-03-06T09:47:00.209Z,9.90
2019-03-06T09:49:34.149Z,9.90
2019-03-06T09:52:21.434Z,10.00
2019-03-06T09:55:14.408Z,10.00
2019-03-06T09:57:58.325Z,10.10
2019-03-06T10:01:03.497Z,10.10
2019-03-06T10:03:49.337Z,10.20
2019-03-06T10:06:35.159Z,10.20
2019-03-06T10:09:17.521Z,10.30
2019-03-06T10:12:03.014Z,10.20
2019-03-06T10:14:56.053Z,10.20
2019-03-06T10:17:35.895Z,10.20
2019-03-06T10:20:08.904Z,10.30
2019-03-06T10:22:36.409Z,10.30
2019-03-06T10:25:04.684Z,10.40
2019-03-06T10:27:32.145Z,10.50
2019-03-06T10:29:59.625Z,10.50
2019-03-06T10:32:27.098Z,10.50
2019-03-06T10:34:55.168Z,10.60
2019-03-06T10:37:22.725Z,10.70
2019-03-06T10:39:50.254Z,10.80
2019-03-06T10:42:17.764Z,10.80
2019-03-06T10:44:45.094Z,10.90
2019-03-06T10:47:12.620Z,11.00
2019-03-06T10:49:40.144Z,11.00
2019-03-06T10:52:07.600Z,11.10
2019-03-06T10:54:37.889Z,11.10
2019-03-06T10:57:04.636Z,11.10
2019-03-06T10:59:32.368Z,11.10
2019-03-06T11:01:59.818Z,11.00
2019-03-06T11:05:02.270Z,11.00
2019-03-06T11:07:29.749Z,11.00
2019-03-06T11:09:57.194Z,11.00
2019-03-06T11:12:25.488Z,11.00
2019-03-06T11:14:52.978Z,11.00
2019-03-06T11:17:20.639Z,11.00
2019-03-06T11:19:48.519Z,11.00
2019-03-06T11:22:16.027Z,11.00
2019-03-06T11:24:43.490Z,11.00
2019-03-06T11:27:11.152Z,11.00
2019-03-06T11:29:38.660Z,10.90
2019-03-06T11:32:06.925Z,11.00
2019-03-06T11:34:34.578Z,11.00
2019-03-06T11:37:02.796Z,11.00
2019-03-06T11:39:32.743Z,11.00
2019-03-06T11:42:00.582Z,11.00
2019-03-06T11:44:28.072Z,11.00
2019-03-06T11:46:55.601Z,11.10
2019-03-06T11:49:23.114Z,11.10
2019-03-06T11:51:51.036Z,11.10
2019-03-06T11:54:18.551Z,11.10
2019-03-06T11:56:46.180Z,11.20
2019-03-06T11:59:13.818Z,11.20
2019-03-06T12:01:47.997Z,11.20
2019-03-06T12:04:12.396Z,11.30
2019-03-06T12:06:39.902Z,11.30
2019-03-06T12:09:27.961Z,11.30
2019-03-06T12:11:55.764Z,11.30
2019-03-06T12:14:23.197Z,11.40
2019-03-06T12:16:50.701Z,11.40
2019-03-06T12:19:18.184Z,11.50
2019-03-06T12:21:46.110Z,11.50
2019-03-06T12:24:13.676Z,11.60
2019-03-06T12:26:41.144Z,11.60
2019-03-06T12:29:08.623Z,11.60
2019-03-06T12:31:36.208Z,11.60
2019-03-06T12:34:03.951Z,11.60
2019-03-06T12:36:31.472Z,11.70
2019-03-06T12:38:59.014Z,11.60
2019-03-06T12:41:26.532Z,11.60
2019-03-06T12:43:54.082Z,11.60
2019-03-06T12:46:25.534Z,11.60
2019-03-06T12:48:58.798Z,11.60
2019-03-06T12:51:26.660Z,11.60
2019-03-06T12:53:54.154Z,11.60
2019-03-06T12:56:21.614Z,11.50
2019-03-06T12:58:49.064Z,11.40
2019-03-06T13:01:16.568Z,11.40
2019-03-06T13:03:44.071Z,11.30
2019-03-06T13:06:11.519Z,11.30
2019-03-06T13:08:49.585Z,11.20
2019-03-06T13:11:08.763Z,11.20
2019-03-06T13:13:36.212Z,11.20
2019-03-06T13:16:03.905Z,11.20
2019-03-06T13:18:46.848Z,11.30
2019-03-06T13:21:14.548Z,11.30
2019-03-06T13:23:41.969Z,11.30
2019-03-06T13:26:10.746Z,11.40
2019-03-06T13:28:38.378Z,11.40
2019-03-06T13:31:06.162Z,11.50
2019-03-06T13:33:59.463Z,11.50
2019-03-06T13:36:26.907Z,11.60
2019-03-06T13:38:56.341Z,11.70
2019-03-06T13:41:23.639Z,11.80
2019-03-06T13:43:51.188Z,11.80
2019-03-06T13:46:18.635Z,11.80
2019-03-06T13:48:46.326Z,11.90
2019-03-06T13:51:13.776Z,11.90
2019-03-06T13:53:41.274Z,11.90
2019-03-06T13:56:09.057Z,11.90
2019-03-06T13:58:36.560Z,11.90
2019-03-06T14:01:06.598Z,11.90
2019-03-06T14:03:34.048Z,11.80
2019-03-06T14:06:01.698Z,11.80
2019-03-06T14:08:29.179Z,11.90
2019-03-06T14:10:56.624Z,11.90
2019-03-06T14:13:24.094Z,11.90
2019-03-06T14:15:54.095Z,11.90
2019-03-06T14:18:20.840Z,11.90
2019-03-06T14:20:48.685Z,11.90
2019-03-06T14:23:16.182Z,11.90
2019-03-06T14:25:43.792Z,11.90
2019-03-06T14:28:11.608Z,12.00
2019-03-06T14:30:39.708Z,11.90
2019-03-06T14:33:07.135Z,11.90
2019-03-06T14:35:34.607Z,11.90
2019-03-06T14:38:02.704Z,11.90
2019-03-06T14:40:30.532Z,11.90
2019-03-06T14:42:58.518Z,11.90
2019-03-06T14:45:26.206Z,11.80
2019-03-06T14:47:53.638Z,11.80
2019-03-06T14:50:21.120Z,11.70
2019-03-06T14:52:48.676Z,11.70
2019-03-06T14:55:16.664Z,11.60
2019-03-06T14:57:44.112Z,11.60
2019-03-06T15:00:13.207Z,11.60
2019-03-06T15:02:40.660Z,11.60
2019-03-06T15:05:08.135Z,11.60
2019-03-06T15:07:35.611Z,11.60
2019-03-06T15:10:03.316Z,11.70
2019-03-06T15:12:32.452Z,11.70
2019-03-06T15:15:00.292Z,11.70
2019-03-06T15:17:27.754Z,11.80
2019-03-06T15:19:55.265Z,11.80
2019-03-06T15:22:22.700Z,11.80
2019-03-06T15:24:50.197Z,11.80
2019-03-06T15:27:17.922Z,11.80
2019-03-06T15:29:45.383Z,11.80
2019-03-06T15:32:12.856Z,11.80
2019-03-06T15:34:40.382Z,11.80
2019-03-06T15:37:07.891Z,11.80
2019-03-06T15:39:42.790Z,11.80
2019-03-06T15:42:07.582Z,11.80
2019-03-06T15:44:35.055Z,11.70
2019-03-06T15:47:02.689Z,11.70
2019-03-06T15:49:30.146Z,11.70
2019-03-06T15:51:57.632Z,11.70
2019-03-06T15:54:25.126Z,11.70
2019-03-06T15:56:52.620Z,11.80
2019-03-06T15:59:20.162Z,11.80
2019-03-06T16:01:47.655Z,11.80
2019-03-06T16:04:15.091Z,11.90
2019-03-06T16:06:42.747Z,11.90
2019-03-06T16:09:10.362Z,11.90
2019-03-06T16:11:38.109Z,11.90
2019-03-06T16:14:05.543Z,11.90
2019-03-06T16:16:33.087Z,12.00
2019-03-06T16:19:00.552Z,12.00
2019-03-06T16:21:31.005Z,12.00
2019-03-06T16:23:58.483Z,12.00
2019-03-06T16:26:25.942Z,11.90
2019-03-06T16:28:53.414Z,11.90
2019-03-06T16:31:21.003Z,11.90
2019-03-06T16:33:48.513Z,11.90
2019-03-06T16:36:16.014Z,11.90
2019-03-06T16:38:43.500Z,11.80
2019-03-06T16:41:11.290Z,11.80
2019-03-06T16:43:38.753Z,11.80
2019-03-06T16:46:06.209Z,11.80
2019-03-06T16:48:33.791Z,11.80
2019-03-06T16:51:01.306Z,11.80
2019-03-06T16:53:28.799Z,11.80
2019-03-06T16:55:56.355Z,11.70
2019-03-06T16:58:23.866Z,11.70
2019-03-06T17:00:52.088Z,11.60
2019-03-06T17:03:19.818Z,11.60
2019-03-06T17:05:47.320Z,11.60
2019-03-06T17:08:14.738Z,11.50
2019-03-06T17:10:42.225Z,11.50
2019-03-06T17:13:09.681Z,11.50
2019-03-06T17:15:37.239Z,11.40
2019-03-06T17:18:04.973Z,11.40
2019-03-06T17:20:32.766Z,11.40
2019-03-06T17:23:00.464Z,11.30
2019-03-06T17:25:28.446Z,11.30
2019-03-06T17:27:56.130Z,11.30
2019-03-06T17:30:24.474Z,11.30
2019-03-06T17:32:56.533Z,11.30
2019-03-06T17:35:24.633Z,11.30
2019-03-06T17:37:52.164Z,11.30
2019-03-06T17:40:19.731Z,11.30
2019-03-06T17:42:47.310Z,11.30
2019-03-06T17:45:15.797Z,11.30
2019-03-06T17:47:43.368Z,11.30
2019-03-06T17:50:11.910Z,11.30
2019-03-06T17:52:48.576Z,11.30
2019-03-06T17:55:16.169Z,11.30
2019-03-06T17:57:43.668Z,11.20
2019-03-06T18:00:16.947Z,11.20
2019-03-06T18:02:41.798Z,11.20
2019-03-06T18:05:09.551Z,11.10
2019-03-06T18:07:37.143Z,11.10
2019-03-06T18:10:05.816Z,11.10
2019-03-06T18:12:33.473Z,11.10
2019-03-06T18:15:00.964Z,11.10
2019-03-06T18:17:28.564Z,11.10
2019-03-06T18:19:56.169Z,11.10
2019-03-06T18:22:23.835Z,11.00
2019-03-06T18:24:51.354Z,11.00
2019-03-06T18:27:26.033Z,10.90
2019-03-06T18:29:48.154Z,10.90
2019-03-06T18:32:15.664Z,10.90
2019-03-06T18:34:43.275Z,10.90
2019-03-06T18:37:10.830Z,10.80
2019-03-06T18:39:38.402Z,10.80
2019-03-06T18:42:05.896Z,10.80
2019-03-06T18:44:33.383Z,10.80
2019-03-06T18:47:00.874Z,10.80
2019-03-06T18:49:28.318Z,10.70
2019-03-06T18:51:55.762Z,10.80
2019-03-06T18:54:23.244Z,10.70
2019-03-06T18:56:50.906Z,10.70
2019-03-06T18:59:18.379Z,10.70
2019-03-06T19:01:45.864Z,10.70
2019-03-06T19:04:13.375Z,10.70
2019-03-06T19:06:41.435Z,10.70
2019-03-06T19:09:09.684Z,10.70
2019-03-06T19:11:41.238Z,10.70
2019-03-06T19:14:08.696Z,10.70
2019-03-06T19:16:36.187Z,10.70
2019-03-06T19:19:03.760Z,10.70
2019-03-06T19:21:31.253Z,10.70
2019-03-06T19:23:58.748Z,10.70
2019-03-06T19:26:26.324Z,10.80
2019-03-06T19:28:53.962Z,10.80
2019-03-06T19:31:22.143Z,10.80
2019-03-06T19:33:49.576Z,10.80
2019-03-06T19:36:17.002Z,10.80
2019-03-06T19:38:44.569Z,10.80
2019-03-06T19:41:12.051Z,10.80
2019-03-06T19:43:39.483Z,10.80
2019-03-06T19:46:06.945Z,10.80
2019-03-06T19:48:34.417Z,10.80
2019-03-06T19:51:01.924Z,10.80
2019-03-06T19:53:29.397Z,10.80
2019-03-06T19:55:56.895Z,10.80
2019-03-06T19:58:24.333Z,10.70
2019-03-06T20:00:51.844Z,10.70
2019-03-06T20:03:20.506Z,10.70
2019-03-06T20:05:47.931Z,10.70
2019-03-06T20:08:15.413Z,10.70
2019-03-06T20:10:43.084Z,10.70
2019-03-06T20:13:10.845Z,10.80
2019-03-06T20:15:38.580Z,10.80
2019-03-06T20:18:17.159Z,10.80
2019-03-06T20:20:45.753Z,10.80
2019-03-06T20:23:13.184Z,10.80
2019-03-06T20:25:40.727Z,10.80
2019-03-06T20:28:08.200Z,10.80
2019-03-06T20:30:36.193Z,10.80
2019-03-06T20:33:04.040Z,10.70
2019-03-06T20:35:31.553Z,10.80
2019-03-06T20:37:59.701Z,10.70
2019-03-06T20:40:27.273Z,10.80
2019-03-06T20:42:55.329Z,10.80
2019-03-06T20:45:24.055Z,10.80
2019-03-06T20:47:51.611Z,10.80
2019-03-06T20:50:19.645Z,10.80
2019-03-06T20:52:50.651Z,10.80
2019-03-06T20:55:18.211Z,10.80
2019-03-06T20:57:48.346Z,10.80
2019-03-06T21:00:21.679Z,10.80
2019-03-06T21:02:49.632Z,10.80
2019-03-06T21:05:20.007Z,10.80
2019-03-06T21:07:47.619Z,10.80
2019-03-06T21:10:15.453Z,10.80
2019-03-06T21:12:46.444Z,10.80
2019-03-06T21:15:14.996Z,10.80
2019-03-06T21:17:42.874Z,10.80
2019-03-06T21:20:12.592Z,10.80
2019-03-06T21:22:42.530Z,10.80
2019-03-06T21:25:18.156Z,10.80
2019-03-06T21:27:48.253Z,10.80
2019-03-06T21:30:20.232Z,10.80
2019-03-06T21:32:55.019Z,10.70
2019-03-06T21:35:27.457Z,10.70
2019-03-06T21:37:57.223Z,10.70
2019-03-06T21:40:24.661Z,10.80
2019-03-06T21:42:52.172Z,10.80
2019-03-06T21:45:21.760Z,10.80
2019-03-06T21:47:49.228Z,10.80
2019-03-06T21:50:16.909Z,10.80
2019-03-06T21:52:45.862Z,10.80
2019-03-06T21:55:15.388Z,10.80
2019-03-06T21:57:47.608Z,10.80
2019-03-06T22:00:19.026Z,10.80
2019-03-06T22:02:46.577Z,10.80
2019-03-06T22:05:14.010Z,10.80
2019-03-06T22:07:41.637Z,10.90
2019-03-06T22:10:09.149Z,10.90
2019-03-06T22:12:36.590Z,10.90
2019-03-06T22:15:05.725Z,10.90
2019-03-06T22:17:33.222Z,10.90
2019-03-06T22:20:00.678Z,10.90
2019-03-06T22:22:28.119Z,10.90
2019-03-06T22:24:58.654Z,10.90
2019-03-06T22:27:30.952Z,10.90
2019-03-06T22:30:00.469Z,10.90
2019-03-06T22:32:30.670Z,10.90
2019-03-06T22:34:58.199Z,10.90
2019-03-06T22:37:26.831Z,10.90
2019-03-06T22:39:55.474Z,10.90
2019-03-06T22:42:23.311Z,10.90
2019-03-06T22:44:53.911Z,10.90
2019-03-06T22:47:21.305Z,10.90
2019-03-06T22:49:51.714Z,10.90
2019-03-06T22:52:19.152Z,10.90
2019-03-06T22:54:50.074Z,10.90
2019-03-06T22:57:17.558Z,10.90
2019-03-06T22:59:46.945Z,10.90
2019-03-06T23:02:14.700Z,10.90
2019-03-06T23:04:42.233Z,11.00
2019-03-06T23:07:09.714Z,11.00
2019-03-06T23:09:37.144Z,11.00
2019-03-06T23:12:04.684Z,11.00
2019-03-06T23:14:32.446Z,11.00
2019-03-06T23:16:59.911Z,11.00
2019-03-06T23:19:27.417Z,11.00
2019-03-06T23:21:54.859Z,11.00
2019-03-06T23:24:22.298Z,11.00
2019-03-06T23:26:49.801Z,11.10
2019-03-06T23:29:17.199Z,11.10
2019-03-06T23:31:44.657Z,11.10
2019-03-06T23:34:12.162Z,11.10
2019-03-06T23:36:39.660Z,11.10
2019-03-06T23:39:11.189Z,11.10
2019-03-06T23:41:38.716Z,11.20
2019-03-06T23:44:06.202Z,11.20
2019-03-06T23:46:33.819Z,11.10
2019-03-06T23:49:01.326Z,11.10
2019-03-06T23:51:33.672Z,11.20
2019-03-06T23:54:01.104Z,11.10
2019-03-06T23:56:28.664Z,11.10
2019-03-06T23:58:56.148Z,11.10
